Time;durP1;ratioP1;P1;durP2;ratioP2;P2;SDS_P1;SDS_P2;PMS_P1;PMS_P2;Temp;Humidity;BMP_temperature;BMP_pressure;BME280_temperature;BME280_humidity;BME280_pressure;Samples;Min_cycle;Max_cycle;Signal;HPM_P1;HPM_P2
2021/09/04 00:00:16;;;;;;;996.88;925.50;;;;;;;11.52;68.72;93691.31;5110943;28;20028;-43
2021/09/04 00:02:41;;;;;;;978.90;909.97;;;;;;;11.47;68.57;93686.72;5111442;28;20075;-44
2021/09/04 00:05:08;;;;;;;995.92;924.90;;;;;;;11.40;69.64;93687.44;5111137;28;20067;-44
2021/09/04 00:07:33;;;;;;;1009.47;934.58;;;;;;;11.39;69.65;93688.75;5105031;28;20405;-43
2021/09/04 00:09:59;;;;;;;1014.30;942.75;;;;;;;11.45;69.62;93700.38;5094630;28;20107;-43
2021/09/04 00:12:26;;;;;;;1003.95;932.72;;;;;;;11.19;70.00;93682.03;5090505;28;20111;-43
2021/09/04 00:14:52;;;;;;;1013.45;938.55;;;;;;;11.32;70.15;93698.47;5098742;28;20401;-44
2021/09/04 00:17:18;;;;;;;1017.45;943.63;;;;;;;11.37;70.01;93702.34;5105800;28;20060;-44
2021/09/04 00:19:43;;;;;;;1009.17;933.47;;;;;;;11.42;69.89;93696.66;5110115;27;21107;-46
2021/09/04 00:22:08;;;;;;;991.28;919.30;;;;;;;11.44;69.52;93696.09;5102929;28;20205;-44
2021/09/04 00:24:34;;;;;;;994.92;925.05;;;;;;;11.44;68.75;93694.09;5104012;28;20465;-43
2021/09/04 00:26:59;;;;;;;993.90;923.58;;;;;;;11.30;68.58;93698.25;5110556;28;20484;-44
2021/09/04 00:29:26;;;;;;;973.72;904.75;;;;;;;11.20;68.99;93713.91;5110753;28;20020;-43
2021/09/04 00:31:51;;;;;;;982.72;914.20;;;;;;;11.19;69.31;93715.19;5110749;28;20416;-43
2021/09/04 00:34:17;;;;;;;1010.78;935.55;;;;;;;11.17;69.63;93712.25;5101226;28;20028;-43
2021/09/04 00:36:42;;;;;;;1018.53;942.92;;;;;;;11.14;70.24;93704.28;5093826;28;20048;-45
2021/09/04 00:39:08;;;;;;;1006.67;933.38;;;;;;;11.15;70.15;93692.69;5090277;28;20482;-44
2021/09/04 00:41:36;;;;;;;1041.35;963.78;;;;;;;11.15;69.77;93703.00;5095953;28;20408;-43
2021/09/04 00:44:03;;;;;;;989.35;917.47;;;;;;;11.15;69.46;93703.72;5110672;28;20023;-45
2021/09/04 00:46:29;;;;;;;1012.90;938.25;;;;;;;11.14;69.56;93698.75;5105247;28;20032;-44
2021/09/04 00:48:54;;;;;;;1041.57;959.28;;;;;;;11.13;70.27;93692.50;5110632;28;20538;-45
2021/09/04 00:51:20;;;;;;;1043.90;965.15;;;;;;;11.04;69.70;93697.81;5110634;28;20042;-44
2021/09/04 00:53:45;;;;;;;996.97;924.67;;;;;;;11.03;69.86;93696.31;5110339;28;20015;-43
2021/09/04 00:56:13;;;;;;;1002.80;930.05;;;;;;;11.06;69.78;93695.22;5096507;28;20027;-44
2021/09/04 00:58:39;;;;;;;1037.88;960.75;;;;;;;11.02;69.59;93692.81;5097368;28;20082;-43
2021/09/04 01:01:04;;;;;;;1028.05;951.97;;;;;;;11.01;69.69;93696.13;5101991;28;20032;-44
2021/09/04 01:03:30;;;;;;;1027.90;950.70;;;;;;;10.97;69.41;93684.69;5098250;28;20408;-44
2021/09/04 01:05:55;;;;;;;1004.40;929.97;;;;;;;10.91;69.01;93684.13;5101964;28;20050;-44
2021/09/04 01:08:21;;;;;;;1021.75;946.42;;;;;;;10.79;69.18;93685.69;5098360;28;20028;-46
2021/09/04 01:10:51;;;;;;;1012.97;939.20;;;;;;;10.85;68.64;93675.25;5098532;28;20076;-44
2021/09/04 01:13:16;;;;;;;997.60;926.58;;;;;;;10.81;68.63;93678.34;5096556;28;20020;-44
2021/09/04 01:15:43;;;;;;;1008.33;934.83;;;;;;;10.81;69.14;93688.66;5098888;28;20046;-43
2021/09/04 01:18:09;;;;;;;1031.45;954.80;;;;;;;10.76;68.93;93690.31;5099777;28;20043;-44
2021/09/04 01:20:34;;;;;;;995.35;922.55;;;;;;;10.68;69.14;93690.25;5096834;28;20027;-43
2021/09/04 01:23:00;;;;;;;1017.58;944.30;;;;;;;10.48;69.85;93680.00;5102280;28;20442;-42
2021/09/04 01:25:29;;;;;;;1004.13;929.38;;;;;;;10.52;69.85;93682.44;5114202;28;20416;-42
2021/09/04 01:27:55;;;;;;;1014.45;938.50;;;;;;;10.52;70.13;93676.91;5113938;28;20069;-42
2021/09/04 01:30:21;;;;;;;1024.35;949.53;;;;;;;10.37;70.15;93665.78;5106827;28;20111;-42
2021/09/04 01:32:46;;;;;;;1038.32;961.63;;;;;;;10.41;70.35;93671.69;5093718;28;20111;-42
2021/09/04 01:35:13;;;;;;;1020.85;942.80;;;;;;;10.38;70.67;93681.03;5112154;28;20023;-42
2021/09/04 01:37:39;;;;;;;1021.97;946.17;;;;;;;10.38;71.01;93676.25;5112171;28;20497;-43
2021/09/04 01:40:09;;;;;;;1045.68;966.63;;;;;;;10.34;70.73;93673.09;5113761;27;20028;-42
2021/09/04 01:42:35;;;;;;;1035.25;957.22;;;;;;;10.30;70.43;93669.22;5113428;28;20023;-42
2021/09/04 01:45:00;;;;;;;1024.70;946.42;;;;;;;10.30;70.70;93656.16;5108560;28;20027;-42
2021/09/04 01:47:26;;;;;;;1029.47;950.00;;;;;;;10.29;70.34;93651.91;5113519;28;20036;-42
2021/09/04 01:49:53;;;;;;;1045.85;965.58;;;;;;;10.21;70.56;93655.91;5113992;28;20034;-42
2021/09/04 01:52:19;;;;;;;1058.60;977.40;;;;;;;10.14;70.18;93656.56;5113800;28;20303;-43
2021/09/04 01:54:45;;;;;;;1052.80;973.05;;;;;;;10.05;69.94;93659.81;5113617;28;20146;-42
2021/09/04 01:57:10;;;;;;;1039.07;960.03;;;;;;;10.07;70.18;93660.72;5113595;28;20016;-42
2021/09/04 01:59:37;;;;;;;1053.82;973.65;;;;;;;9.92;70.47;93639.28;5113433;28;20409;-42
2021/09/04 02:02:03;;;;;;;1017.40;939.30;;;;;;;10.05;70.72;93646.03;5113221;28;20027;-42
2021/09/04 02:04:28;;;;;;;1028.03;948.80;;;;;;;10.06;70.56;93647.47;5113496;28;20054;-42
2021/09/04 02:06:53;;;;;;;1022.10;944.45;;;;;;;10.06;70.69;93659.25;5113505;28;20088;-42
2021/09/04 02:09:19;;;;;;;1034.95;956.85;;;;;;;10.03;70.81;93662.38;5113453;28;20024;-42
2021/09/04 02:11:44;;;;;;;1068.10;985.35;;;;;;;9.99;71.24;93657.19;5113370;28;20024;-42
2021/09/04 02:14:10;;;;;;;1055.93;974.35;;;;;;;9.87;71.04;93656.72;5113034;28;20465;-42
2021/09/04 02:16:35;;;;;;;1013.65;937.90;;;;;;;9.94;70.34;93647.75;5113154;28;20011;-42
2021/09/04 02:19:01;;;;;;;1044.00;963.70;;;;;;;9.85;70.44;93647.53;5113299;28;20046;-42
2021/09/04 02:21:26;;;;;;;1041.22;961.88;;;;;;;9.94;69.98;93660.81;5113256;28;20016;-42
2021/09/04 02:23:51;;;;;;;1036.70;958.78;;;;;;;9.92;69.70;93663.38;5113139;28;20084;-42
2021/09/04 02:26:17;;;;;;;1047.38;966.58;;;;;;;9.84;70.46;93657.81;5109832;28;20488;-42
2021/09/04 02:28:42;;;;;;;1052.68;973.70;;;;;;;9.82;70.70;93660.34;5092370;28;20027;-42
2021/09/04 02:31:08;;;;;;;1041.35;961.42;;;;;;;9.82;70.69;93651.34;5092341;28;20409;-42
2021/09/04 02:33:33;;;;;;;1036.75;958.92;;;;;;;9.85;70.83;93653.03;5092067;28;20012;-42
2021/09/04 02:35:58;;;;;;;1036.65;957.67;;;;;;;9.87;70.48;93647.72;5092485;28;20024;-45
2021/09/04 02:38:24;;;;;;;1027.60;951.45;;;;;;;9.57;69.82;93595.09;5095656;28;20030;-45
2021/09/04 02:40:49;;;;;;;1037.82;958.28;;;;;;;9.86;69.10;93633.19;5108326;28;20035;-44
2021/09/04 02:43:15;;;;;;;1020.53;944.72;;;;;;;9.83;69.60;93639.03;5092671;28;20085;-45
2021/09/04 02:45:40;;;;;;;1015.05;939.83;;;;;;;9.80;69.63;93646.38;5095909;28;20028;-45
2021/09/04 02:48:06;;;;;;;1036.57;959.13;;;;;;;9.78;69.12;93648.94;5091838;28;20441;-43
2021/09/04 02:50:31;;;;;;;1029.72;951.95;;;;;;;9.70;69.23;93647.38;5091837;28;20416;-43
2021/09/04 02:52:57;;;;;;;1024.10;947.40;;;;;;;9.66;69.47;93635.94;5092267;28;20024;-43
2021/09/04 02:55:22;;;;;;;1028.65;951.08;;;;;;;9.57;70.19;93634.38;5092114;28;20477;-46
2021/09/04 02:57:48;;;;;;;1036.65;959.88;;;;;;;9.60;69.87;93633.31;5091790;28;20031;-46
2021/09/04 03:00:14;;;;;;;1016.40;941.55;;;;;;;9.51;69.87;93635.78;5092310;28;20024;-44
2021/09/04 03:02:39;;;;;;;1031.43;953.53;;;;;;;9.49;70.11;93633.59;5091876;28;20027;-43
2021/09/04 03:05:05;;;;;;;1032.47;954.05;;;;;;;9.48;70.04;93632.13;5092005;28;20024;-44
2021/09/04 03:07:31;;;;;;;1049.53;969.70;;;;;;;9.39;69.82;93629.81;5091575;28;20020;-46
2021/09/04 03:09:56;;;;;;;1029.43;953.05;;;;;;;9.39;70.05;93634.59;5091637;28;20034;-44
2021/09/04 03:12:22;;;;;;;1048.05;968.70;;;;;;;9.39;70.98;93623.56;5091533;28;20023;-45
2021/09/04 03:14:47;;;;;;;1058.30;974.72;;;;;;;9.35;70.55;93612.16;5091720;28;20024;-44
2021/09/04 03:17:13;;;;;;;1059.13;977.78;;;;;;;9.35;71.26;93618.41;5091482;28;20028;-44
2021/09/04 03:19:38;;;;;;;1044.78;964.30;;;;;;;9.34;70.16;93635.44;5091630;28;20031;-45
2021/09/04 03:22:03;;;;;;;1019.72;940.88;;;;;;;9.37;70.42;93639.91;5091644;28;20417;-45
2021/09/04 03:24:29;;;;;;;1061.43;980.83;;;;;;;9.18;70.02;93631.81;5110623;28;20031;-43
2021/09/04 03:26:54;;;;;;;1043.82;963.13;;;;;;;9.23;70.65;93628.19;5111494;28;20023;-43
2021/09/04 03:29:20;;;;;;;1049.82;968.47;;;;;;;9.26;70.59;93627.13;5110375;28;20153;-43
2021/09/04 03:31:45;;;;;;;1048.97;970.17;;;;;;;9.28;70.91;93618.31;5111517;28;20022;-42
2021/09/04 03:34:11;;;;;;;1053.15;972.78;;;;;;;9.30;70.98;93633.03;5101753;28;20016;-42
2021/09/04 03:36:36;;;;;;;1020.85;942.75;;;;;;;9.25;70.86;93633.91;5091179;28;20016;-42
2021/09/04 03:39:02;;;;;;;1001.72;927.60;;;;;;;9.24;70.14;93635.19;5091238;28;20043;-44
2021/09/04 03:41:27;;;;;;;1020.42;942.53;;;;;;;9.15;70.13;93636.38;5101903;28;20042;-43
2021/09/04 03:43:53;;;;;;;1019.13;942.88;;;;;;;9.04;69.66;93628.38;5091651;28;20085;-43
2021/09/04 03:46:18;;;;;;;1016.92;940.92;;;;;;;9.04;69.83;93627.63;5093995;28;20073;-44
2021/09/04 03:48:44;;;;;;;1022.80;945.83;;;;;;;8.94;70.20;93630.06;5090720;28;20039;-43
2021/09/04 03:51:09;;;;;;;1050.25;971.85;;;;;;;8.90;70.83;93635.16;5090783;28;20035;-42
2021/09/04 03:53:35;;;;;;;1025.70;945.90;;;;;;;8.91;70.67;93639.41;5090779;28;20032;-42
2021/09/04 03:56:00;;;;;;;1053.72;973.55;;;;;;;8.81;70.67;93641.16;5090641;28;20024;-42
2021/09/04 03:58:25;;;;;;;1045.82;965.00;;;;;;;8.79;71.13;93648.44;5090645;28;20024;-42
2021/09/04 04:00:51;;;;;;;1048.65;967.92;;;;;;;8.74;71.51;93643.78;5090639;28;20036;-42
2021/09/04 04:03:16;;;;;;;1053.00;969.47;;;;;;;8.79;71.42;93653.97;5090653;28;20069;-42
2021/09/04 04:05:42;;;;;;;1079.15;991.50;;;;;;;8.82;71.50;93645.38;5090891;28;20019;-42
2021/09/04 04:08:07;;;;;;;1081.88;994.80;;;;;;;8.76;70.79;93646.75;5090441;28;20016;-42
2021/09/04 04:10:33;;;;;;;1061.30;978.05;;;;;;;8.77;71.10;93648.25;5090413;28;20020;-42
2021/09/04 04:12:58;;;;;;;1054.20;970.10;;;;;;;8.63;71.23;93653.03;5090806;28;20028;-43
2021/09/04 04:15:24;;;;;;;1051.20;968.45;;;;;;;8.76;70.31;93655.75;5090733;28;20477;-42
2021/09/04 04:17:49;;;;;;;1092.00;998.70;;;;;;;8.79;70.58;93656.72;5090578;28;20517;-42
2021/09/04 04:20:15;;;;;;;1079.45;993.65;;;;;;;8.77;71.08;93664.75;5105638;28;20032;-42
2021/09/04 04:22:40;;;;;;;1076.00;989.75;;;;;;;8.77;71.60;93651.00;5110575;28;20026;-42
2021/09/04 04:25:06;;;;;;;1064.53;980.22;;;;;;;8.83;71.26;93652.38;5110820;28;20031;-43
2021/09/04 04:27:31;;;;;;;1065.70;981.15;;;;;;;8.85;71.06;93654.56;5110448;28;20030;-41
2021/09/04 04:29:57;;;;;;;1116.45;999.90;;;;;;;8.93;71.24;93647.13;5110659;28;20027;-41
2021/09/04 04:32:22;;;;;;;1063.13;976.95;;;;;;;8.99;70.48;93659.50;5110550;28;20028;-43
2021/09/04 04:34:48;;;;;;;1087.22;997.42;;;;;;;8.96;70.77;93660.59;5110808;28;20022;-43
2021/09/04 04:37:13;;;;;;;1081.55;994.30;;;;;;;8.96;71.37;93652.34;5110373;28;20020;-43
2021/09/04 04:39:39;;;;;;;1079.28;993.53;;;;;;;8.90;70.83;93653.72;5110411;28;20023;-43
2021/09/04 04:42:04;;;;;;;1061.10;977.28;;;;;;;8.96;71.48;93651.59;5110819;28;20015;-42
2021/09/04 04:44:30;;;;;;;1086.13;997.45;;;;;;;8.99;71.59;93656.75;5107570;28;20159;-43
2021/09/04 04:46:55;;;;;;;1054.65;972.28;;;;;;;9.08;71.08;93656.31;5101707;28;20059;-43
2021/09/04 04:49:20;;;;;;;1095.07;999.90;;;;;;;9.09;71.01;93657.06;5110402;28;20027;-42
2021/09/04 04:51:46;;;;;;;1089.85;997.42;;;;;;;9.12;72.10;93655.97;5110414;28;20031;-43
2021/09/04 04:54:11;;;;;;;1103.65;999.90;;;;;;;9.14;72.12;93656.19;5110653;28;20476;-43
2021/09/04 04:56:37;;;;;;;1114.25;999.90;;;;;;;9.10;72.75;93642.75;5110485;28;20023;-44
2021/09/04 04:59:02;;;;;;;1103.93;999.90;;;;;;;9.24;73.05;93643.44;5112905;27;20393;-43
2021/09/04 05:01:28;;;;;;;1072.45;981.90;;;;;;;9.33;73.18;93647.75;5114826;28;20023;-42
2021/09/04 05:03:53;;;;;;;1091.60;999.72;;;;;;;9.36;73.78;93660.44;5114668;28;20015;-43
2021/09/04 05:06:18;;;;;;;1103.47;999.90;;;;;;;9.47;73.43;93662.97;5114414;28;20113;-43
2021/09/04 05:08:44;;;;;;;1118.53;999.90;;;;;;;9.63;73.11;93653.56;5112898;28;20030;-42
2021/09/04 05:11:09;;;;;;;1100.38;999.90;;;;;;;9.68;72.75;93656.19;5105483;28;20020;-43
2021/09/04 05:13:35;;;;;;;1091.43;997.55;;;;;;;9.75;73.06;93661.03;5093781;28;20031;-43
2021/09/04 05:16:00;;;;;;;1109.38;999.90;;;;;;;9.84;73.43;93657.81;5104976;28;20019;-41
2021/09/04 05:18:26;;;;;;;1106.90;999.90;;;;;;;9.92;73.52;93652.34;5114063;28;20031;-42
2021/09/04 05:20:52;;;;;;;1099.13;999.90;;;;;;;10.04;73.32;93658.31;5113980;28;20020;-43
2021/09/04 05:23:18;;;;;;;1106.25;999.90;;;;;;;10.10;73.15;93654.13;5114424;28;20098;-42
2021/09/04 05:25:43;;;;;;;1132.78;999.90;;;;;;;10.27;73.77;93662.75;5098728;28;20055;-41
2021/09/04 05:28:09;;;;;;;1097.13;999.90;;;;;;;10.35;73.52;93663.53;5095060;28;20099;-42
2021/09/04 05:30:34;;;;;;;1112.18;999.90;;;;;;;10.48;73.73;93660.66;5110274;28;20031;-43
2021/09/04 05:33:00;;;;;;;1118.80;999.90;;;;;;;10.60;74.07;93650.81;5112391;28;20488;-43
2021/09/04 05:35:25;;;;;;;1097.80;998.83;;;;;;;10.74;74.09;93645.94;5112355;28;20092;-43
2021/09/04 05:37:51;;;;;;;1091.13;995.88;;;;;;;10.80;74.33;93643.00;5112284;28;20092;-43
2021/09/04 05:40:16;;;;;;;1136.80;999.90;;;;;;;10.90;74.55;93649.47;5112176;28;20034;-45
2021/09/04 05:42:42;;;;;;;1126.25;999.90;;;;;;;10.95;74.93;93640.28;5112471;28;20066;-45
2021/09/04 05:56:43;;;;;;;1143.07;999.90;;;;;;;12.31;71.45;93651.59;5107555;27;21245;-43
2021/09/04 05:59:08;;;;;;;1096.03;997.67;;;;;;;12.27;71.30;93638.13;5108168;27;20110;-43
2021/09/04 06:01:34;;;;;;;1067.15;981.03;;;;;;;12.33;71.68;93646.97;5107111;28;20019;-43
2021/09/04 06:03:59;;;;;;;1073.85;983.42;;;;;;;12.40;72.39;93637.19;5107743;28;20020;-43
2021/09/04 06:06:25;;;;;;;1065.90;982.78;;;;;;;12.55;72.43;93637.91;5107696;28;20024;-43
2021/09/04 06:08:50;;;;;;;1032.05;952.17;;;;;;;12.68;72.08;93634.19;5107662;28;20024;-44
2021/09/04 06:11:16;;;;;;;1067.65;983.50;;;;;;;12.78;71.93;93638.59;5107728;28;20020;-43
2021/09/04 06:13:41;;;;;;;1079.65;991.67;;;;;;;12.85;71.67;93639.84;5107914;28;20024;-43
2021/09/04 06:16:06;;;;;;;1068.25;984.75;;;;;;;12.92;71.37;93645.38;5107966;28;20524;-43
2021/09/04 06:18:32;;;;;;;1062.38;978.45;;;;;;;13.02;70.96;93639.22;5107806;28;20458;-43
2021/09/04 06:20:57;;;;;;;1085.82;998.33;;;;;;;13.11;70.32;93641.44;5107425;28;20024;-44
2021/09/04 06:23:23;;;;;;;1079.20;994.67;;;;;;;13.16;70.87;93634.97;5107731;28;20385;-44
2021/09/04 06:25:48;;;;;;;1079.63;993.58;;;;;;;13.32;70.47;93637.09;5106087;28;20473;-44
2021/09/04 06:28:14;;;;;;;1074.65;988.67;;;;;;;13.53;69.85;93654.22;5107445;28;20102;-45
2021/09/04 06:30:39;;;;;;;1089.18;999.20;;;;;;;13.67;69.92;93655.41;5107623;28;20473;-44
2021/09/04 06:33:05;;;;;;;1074.00;987.67;;;;;;;13.76;69.83;93658.88;5107177;28;20020;-44
2021/09/04 06:35:30;;;;;;;1073.60;990.22;;;;;;;13.90;69.77;93648.97;5107175;28;20024;-43
2021/09/04 06:37:55;;;;;;;1096.70;999.90;;;;;;;14.06;68.07;93648.28;5107194;28;20031;-43
2021/09/04 06:40:21;;;;;;;1047.05;964.30;;;;;;;14.12;67.61;93659.19;5107423;28;20447;-43
2021/09/04 06:42:46;;;;;;;1030.18;950.47;;;;;;;14.17;65.33;93647.09;5106898;28;20019;-43
2021/09/04 06:45:12;;;;;;;1030.25;953.35;;;;;;;14.25;64.58;93650.56;5106866;28;20047;-45
2021/09/04 06:47:37;;;;;;;1043.78;964.00;;;;;;;14.40;65.33;93651.19;5106980;28;20039;-44
2021/09/04 06:50:04;;;;;;;1038.25;959.20;;;;;;;14.63;65.53;93645.44;5106889;28;20115;-45
2021/09/04 06:52:30;;;;;;;1018.60;942.00;;;;;;;15.13;63.88;93643.22;5098385;28;20021;-43
2021/09/04 06:54:55;;;;;;;1023.75;942.28;;;;;;;16.12;59.29;93645.44;5084464;28;20059;-44
2021/09/04 06:57:20;;;;;;;912.13;844.80;;;;;;;17.78;55.16;93642.41;5072075;28;20032;-45
2021/09/04 06:59:46;;;;;;;896.70;826.72;;;;;;;19.59;50.97;93635.06;5071080;28;20024;-44
2021/09/04 07:02:11;;;;;;;1002.22;901.45;;;;;;;21.08;46.99;93638.59;5070973;28;20062;-45
2021/09/04 07:04:37;;;;;;;1176.53;985.95;;;;;;;23.10;42.71;93631.44;5070913;28;20515;-46
2021/09/04 07:07:05;;;;;;;1170.82;999.90;;;;;;;24.33;37.60;93628.97;5070910;28;20032;-45
2021/09/04 07:09:32;;;;;;;1182.00;999.90;;;;;;;24.35;36.61;93622.66;5070706;28;20059;-45
2021/09/04 07:11:57;;;;;;;1155.65;999.90;;;;;;;23.76;38.70;93614.25;5069839;28;20421;-44
2021/09/04 07:14:23;;;;;;;1192.45;999.90;;;;;;;22.47;43.22;93619.00;5070748;28;20040;-46
2021/09/04 07:16:48;;;;;;;1204.75;999.90;;;;;;;21.97;43.41;93612.72;5070702;28;20020;-45
2021/09/04 07:19:14;;;;;;;1185.35;999.90;;;;;;;21.37;44.87;93615.69;5070225;28;20024;-43
2021/09/04 07:21:40;;;;;;;1147.75;999.90;;;;;;;21.20;44.18;93618.94;5070386;28;20071;-44
2021/09/04 07:24:05;;;;;;;1163.85;999.90;;;;;;;22.28;43.17;93615.84;5070125;28;20064;-44
2021/09/04 07:26:32;;;;;;;1162.47;999.90;;;;;;;24.21;38.85;93613.56;5085724;28;20028;-44
2021/09/04 07:28:57;;;;;;;1103.50;999.15;;;;;;;26.41;34.16;93615.13;5090445;28;20035;-44
2021/09/04 07:31:23;;;;;;;1071.75;986.17;;;;;;;28.21;30.45;93617.22;5090252;28;20028;-44
2021/09/04 07:33:48;;;;;;;1101.65;999.90;;;;;;;29.37;28.52;93616.38;5090610;28;20085;-46
2021/09/04 07:36:14;;;;;;;1096.82;998.80;;;;;;;30.62;26.86;93615.19;5090521;28;20046;-45
2021/09/04 07:38:39;;;;;;;1101.25;999.03;;;;;;;29.01;29.06;93618.91;5090537;28;20027;-44
2021/09/04 07:41:04;;;;;;;1113.32;999.90;;;;;;;30.09;27.92;93626.75;5090315;28;20027;-44
2021/09/04 07:43:30;;;;;;;1087.82;997.83;;;;;;;31.42;25.22;93616.16;5089933;28;20085;-45
2021/09/04 07:45:55;;;;;;;1038.72;957.17;;;;;;;32.66;23.81;93613.97;5089956;28;20027;-45
2021/09/04 07:48:21;;;;;;;1014.25;938.70;;;;;;;33.05;22.83;93618.09;5089947;28;20032;-45
2021/09/04 07:50:47;;;;;;;980.00;906.17;;;;;;;33.32;21.78;93613.41;5089901;28;20040;-45
2021/09/04 07:53:12;;;;;;;920.88;854.85;;;;;;;32.88;20.64;93616.41;5085700;28;20020;-44
2021/09/04 07:55:37;;;;;;;982.42;907.90;;;;;;;32.99;22.92;93625.84;5089424;28;20040;-46
2021/09/04 07:58:03;;;;;;;955.70;885.15;;;;;;;31.16;24.61;93632.75;5088823;28;20115;-45
2021/09/04 08:00:29;;;;;;;893.20;827.60;;;;;;;29.68;22.95;93616.47;5070917;28;20032;-44
2021/09/04 08:02:54;;;;;;;815.65;758.58;;;;;;;29.29;23.92;93633.94;5069774;28;20135;-44
2021/09/04 08:05:20;;;;;;;789.63;734.97;;;;;;;28.43;25.30;93641.34;5071791;28;20037;-43
2021/09/04 08:07:45;;;;;;;747.00;698.67;;;;;;;27.62;25.89;93632.31;5088178;28;20028;-45
2021/09/04 08:10:11;;;;;;;821.50;767.35;;;;;;;27.97;26.90;93636.28;5089582;28;20085;-45
2021/09/04 08:12:36;;;;;;;712.95;666.72;;;;;;;29.40;25.76;93629.22;5088158;28;20023;-44
2021/09/04 08:15:03;;;;;;;739.85;690.67;;;;;;;29.14;25.10;93632.78;5089396;28;20034;-43
2021/09/04 08:17:28;;;;;;;823.78;769.85;;;;;;;28.80;25.56;93628.25;5089675;28;20047;-43
2021/09/04 08:19:54;;;;;;;766.85;717.78;;;;;;;28.61;24.78;93624.13;5089306;28;20027;-45
2021/09/04 08:22:19;;;;;;;720.58;675.40;;;;;;;29.59;23.15;93629.03;5088586;28;20028;-44
2021/09/04 08:24:44;;;;;;;777.72;728.22;;;;;;;31.38;22.05;93618.91;5089832;28;20024;-44
2021/09/04 08:27:10;;;;;;;773.15;723.10;;;;;;;32.57;20.76;93628.84;5090158;28;20079;-44
2021/09/04 08:29:35;;;;;;;759.05;707.63;;;;;;;32.92;19.38;93625.78;5089966;28;20412;-44
2021/09/04 08:32:01;;;;;;;767.40;716.95;;;;;;;33.16;19.14;93633.97;5089235;28;20093;-45
2021/09/04 08:34:26;;;;;;;849.63;792.50;;;;;;;33.20;20.42;93633.31;5089188;28;20027;-45
2021/09/04 08:36:52;;;;;;;785.75;734.97;;;;;;;34.04;19.07;93634.28;5088968;28;20028;-45
2021/09/04 08:39:17;;;;;;;770.20;720.92;;;;;;;35.15;17.50;93634.38;5088912;28;20035;-44
2021/09/04 08:41:44;;;;;;;794.60;742.53;;;;;;;35.13;17.25;93620.69;5089223;28;20028;-45
2021/09/04 08:44:09;;;;;;;805.03;751.15;;;;;;;36.13;16.33;93593.72;5088670;28;20078;-44
2021/09/04 08:46:36;;;;;;;818.33;765.65;;;;;;;37.13;16.71;93628.16;5077171;28;20055;-44
2021/09/04 08:49:03;;;;;;;837.28;781.65;;;;;;;37.37;15.96;93638.91;5068909;28;20039;-45
2021/09/04 08:51:29;;;;;;;811.00;757.65;;;;;;;33.93;17.93;93634.84;5068494;28;20031;-43
2021/09/04 08:53:55;;;;;;;771.90;721.45;;;;;;;30.80;20.91;93629.13;5078051;28;20028;-45
2021/09/04 08:56:20;;;;;;;630.80;592.03;;;;;;;32.54;19.59;93624.53;5088730;28;20687;-42
2021/09/04 08:58:46;;;;;;;621.10;583.53;;;;;;;34.43;18.61;93626.69;5081964;28;20031;-43
2021/09/04 09:01:29;;;;;;;696.40;653.42;;;;;;;35.96;18.65;93621.00;5088571;28;20035;-44
2021/09/04 09:03:58;;;;;;;666.53;625.55;;;;;;;33.12;19.00;93628.19;5088849;28;20523;-42
2021/09/04 09:06:43;;;;;;;;;;;;;;;32.66;19.21;93631.13;5088377;28;20126;-44
2021/09/04 09:09:23;;;;;;;661.13;622.25;;;;;;;32.83;20.48;93635.66;5088685;28;19930;-43
2021/09/04 09:11:53;;;;;;;556.55;523.25;;;;;;;34.51;17.79;93643.25;5088778;28;20031;-45
2021/09/04 09:14:20;;;;;;;640.00;602.05;;;;;;;35.65;17.44;93631.69;5090258;28;20020;-43
2021/09/04 09:16:49;;;;;;;631.72;593.33;;;;;;;35.94;15.73;93621.69;5090870;28;20028;-43
2021/09/04 09:19:15;;;;;;;715.75;670.55;;;;;;;36.86;17.02;93626.75;5090250;28;20066;-43
2021/09/04 09:21:41;;;;;;;726.72;682.58;;;;;;;36.49;16.58;93625.38;5090876;28;20016;-43
2021/09/04 09:24:10;;;;;;;722.35;675.22;;;;;;;36.61;16.49;93631.13;5090470;28;20027;-45
2021/09/04 09:26:45;;;;;;;760.97;713.42;;;;;;;35.55;16.82;93623.06;5090476;28;20032;-43
2021/09/04 09:29:22;;;;;;;779.47;729.10;;;;;;;34.24;18.95;93617.22;5090838;28;20431;-43
2021/09/04 09:31:48;;;;;;;706.38;661.58;;;;;;;35.12;17.98;93609.94;5090761;28;20576;-43
2021/09/04 09:34:15;;;;;;;695.95;653.05;;;;;;;35.87;16.83;93611.63;5090297;28;20028;-43
2021/09/04 09:36:51;;;;;;;700.00;656.22;;;;;;;36.11;16.39;93580.06;5090652;28;20024;-43
2021/09/04 09:39:17;;;;;;;690.40;646.60;;;;;;;37.58;14.54;93599.19;5090898;28;20026;-45
2021/09/04 09:41:51;;;;;;;642.90;603.92;;;;;;;38.17;13.48;93590.91;5090495;28;20095;-44
2021/09/04 09:44:21;;;;;;;713.40;669.85;;;;;;;38.53;14.22;93594.22;5090392;28;20043;-43
2021/09/04 09:46:57;;;;;;;712.00;668.05;;;;;;;38.81;14.76;93587.50;5090330;28;20028;-46
2021/09/04 09:49:30;;;;;;;722.67;677.08;;;;;;;38.02;14.90;93592.47;5090028;28;20039;-44
2021/09/04 09:52:00;;;;;;;713.20;667.97;;;;;;;36.68;16.52;93595.16;5090144;28;20028;-44
2021/09/04 09:54:27;;;;;;;694.00;650.80;;;;;;;36.60;16.43;93580.06;5090016;28;20028;-44
2021/09/04 09:56:57;;;;;;;589.65;552.85;;;;;;;36.75;14.98;93581.47;5090192;28;20031;-44
2021/09/04 09:59:26;;;;;;;603.17;566.33;;;;;;;34.25;16.79;93583.56;5090463;28;20028;-44
2021/09/04 10:01:52;;;;;;;636.00;598.08;;;;;;;34.89;18.10;93577.53;5090380;28;20105;-47
2021/09/04 10:04:18;;;;;;;544.50;512.40;;;;;;;34.95;16.31;93574.69;5106081;28;20028;-46
2021/09/04 10:06:44;;;;;;;456.15;431.15;;;;;;;34.64;15.25;93558.75;5090267;28;20454;-45
2021/09/04 10:09:10;;;;;;;532.58;499.80;;;;;;;34.38;16.64;93555.69;5090243;28;20016;-44
2021/09/04 10:11:37;;;;;;;476.52;448.73;;;;;;;32.79;18.10;93552.66;5089131;28;20408;-45
2021/09/04 10:14:03;;;;;;;489.45;462.40;;;;;;;33.35;18.56;93531.88;5090232;28;20108;-44
2021/09/04 10:16:29;;;;;;;475.98;449.77;;;;;;;34.06;18.64;93559.06;5068089;28;20044;-45
2021/09/04 10:18:54;;;;;;;477.42;451.30;;;;;;;34.89;18.01;93554.59;5067291;28;20433;-44
2021/09/04 10:21:20;;;;;;;503.48;473.98;;;;;;;35.47;16.95;93551.22;5066087;28;20021;-45
2021/09/04 10:23:50;;;;;;;577.15;543.53;;;;;;;34.77;17.87;93554.50;5066371;28;20068;-46
2021/09/04 10:26:32;;;;;;;556.20;520.65;;;;;;;35.98;17.19;93552.75;5067322;28;20029;-45
2021/09/04 10:29:03;;;;;;;563.85;529.50;;;;;;;36.52;15.83;93560.66;5066627;28;20032;-45
2021/09/04 10:31:57;;;;;;;603.08;566.47;;;;;;;35.44;15.81;93576.31;5069146;28;20036;-46
2021/09/04 10:34:33;;;;;;;614.97;576.90;;;;;;;36.16;15.62;93577.91;5073462;28;20028;-44
2021/09/04 10:37:08;;;;;;;620.20;583.40;;;;;;;37.23;15.55;93570.53;5088455;28;20031;-45
2021/09/04 10:39:50;;;;;;;629.95;591.22;;;;;;;36.90;14.66;93569.22;5071978;28;20040;-46
2021/09/04 10:42:28;;;;;;;624.58;586.45;;;;;;;37.57;14.61;93568.94;5070789;28;20031;-45
2021/09/04 10:45:16;;;;;;;619.97;582.50;;;;;;;37.93;13.88;93565.84;5070636;28;20033;-45
2021/09/04 10:47:42;;;;;;;655.03;615.83;;;;;;;38.43;13.04;93565.47;5070791;28;20024;-47
2021/09/04 10:50:25;;;;;;;648.70;609.35;;;;;;;37.93;13.87;93552.16;5071042;28;20421;-47
2021/09/04 10:52:52;;;;;;;647.97;609.20;;;;;;;38.13;12.93;93545.53;5070878;28;20040;-45
2021/09/04 10:55:18;;;;;;;674.58;633.88;;;;;;;38.51;13.79;93535.81;5070666;28;20492;-46
2021/09/04 10:57:46;;;;;;;625.55;588.55;;;;;;;38.10;12.94;93541.22;5070763;28;20452;-44
2021/09/04 11:00:20;;;;;;;640.55;602.10;;;;;;;38.01;12.90;93547.78;5070707;28;20040;-46
2021/09/04 11:03:17;;;;;;;626.03;588.10;;;;;;;37.67;13.78;93531.41;5070538;28;20089;-45
2021/09/04 11:05:56;;;;;;;609.13;572.08;;;;;;;37.38;14.50;93533.78;5074307;28;20024;-46
2021/09/04 11:08:22;;;;;;;634.20;596.75;;;;;;;37.56;14.57;93532.94;5090530;28;20036;-46